Accueil
METAR-TAF:

METAR-TAF

Aéroports :

Strasbourg, France

Aéroport de Strasbourg-Entzheim

latitude: 48-33N, longitude: 007-38E, altitude: 153 m

Observation

Le bulletin a été fait il y a 18 minutes, à 16:30 UTC
Vent 4 kt de nord/nord-est, variant entre nord/nord-ouest et nord-est
Température 25°C
Humidité 44%
Pression 1018 hPa
Visibilité 10 km ou plus
pas de nuages en-dessous de 1500 mètres et pas de cumulonimbus.

METAR: LFST 221630Z AUTO 02004KT 340V050 CAVOK 25/12 Q1018 NOSIG

Heure: 18:48 (16:48 UTC)

Prévision

Le bulletin a été fait il y a 5 heures et 48 minutes, à 11:00 UTC
Prévision valable du 22 à 12 UTC au 23 à 12 UTC
Vent 5 kt de nord/nord-est
Visibilité 10 km ou plus
Nuages fragmentés à une hauteur de 5500 ft
Evoluant progressivement
du 22 à 13 UTC au 22 à 15 UTC
Visibilité 10 km ou plus
pas de nuages en-dessous de 1500 mètres et pas de cumulonimbus.

TAF: LFST 221100Z 2212/2312 02005KT 9999 BKN055 BECMG 2213/2215 CAVOK

Observations et prévisions météorologiques de plus de 4000 aéroports (messages METAR et TAF).

Les stations disponibles sont représentées par des disques jaunes et rouges sur la carte.

Passer la souris dessus pour voir le nom de la station.

Cliquer dessus pour voir les observations et prévisions météorologiques.

Pour changer de carte: cliquez sur les boutons verts avec une croix noire pour zoomer, sur le bouton vert avec un tiret pour effectuer un zoom arrière, ou sur les flèches vertes pour les cartes adjacentes.


METAR-TAF: